Time;durP1;ratioP1;P1;durP2;ratioP2;P2;SDS_P1;SDS_P2;PMS_P1;PMS_P2;Temp;Humidity;BMP_temperature;BMP_pressure;BME280_temperature;BME280_humidity;BME280_pressure;Samples;Min_cycle;Max_cycle;Signal;HPM_P1;HPM_P2
2023/10/12 00:09:20;;;;;;;;;;;20.90;99.90;;;;;;6744259;88;20054;-82
2023/10/12 00:19:23;;;;;;;;;;;21.00;99.90;;;;;;6745696;88;20061;-81
2023/10/12 00:29:23;;;;;;;;;;;20.90;99.90;;;;;;6743871;88;20046;-83
2023/10/12 00:39:27;;;;;;;;;;;20.80;99.90;;;;;;6746461;88;20048;-83
2023/10/12 00:49:30;;;;;;;;;;;20.70;99.90;;;;;;6746666;88;20093;-83
2023/10/12 00:59:34;;;;;;;;;;;20.60;99.90;;;;;;6728550;88;20632;-83
2023/10/12 01:09:45;;;;;;;;;;;20.60;99.90;;;;;;6725757;88;20088;-82
2023/10/12 01:19:46;;;;;;;;;;;20.60;99.90;;;;;;6724403;88;20080;-82
2023/10/12 01:29:46;;;;;;;;;;;20.60;99.90;;;;;;6725166;88;22921;-82
2023/10/12 01:39:56;;;;;;;;;;;20.50;99.90;;;;;;6723006;88;20060;-81
2023/10/12 01:50:00;;;;;;;;;;;20.40;99.90;;;;;;6725677;88;20062;-83
2023/10/12 02:00:00;;;;;;;;;;;20.30;99.90;;;;;;6738017;88;20081;-82
2023/10/12 02:10:01;;;;;;;;;;;20.30;99.90;;;;;;6740577;88;20126;-81
2023/10/12 02:20:01;;;;;;;;;;;20.10;99.90;;;;;;6738238;88;20122;-82
2023/10/12 02:30:02;;;;;;;;;;;19.90;99.90;;;;;;6740602;88;20232;-82
2023/10/12 02:40:04;;;;;;;;;;;19.20;99.90;;;;;;6736489;88;20046;-83
2023/10/12 03:00:15;;;;;;;;;;;18.90;99.90;;;;;;6739900;88;20071;-81
2023/10/12 03:10:24;;;;;;;;;;;18.60;99.90;;;;;;6739376;88;20602;-82
2023/10/12 03:20:28;;;;;;;;;;;18.50;99.90;;;;;;6738398;88;20099;-81
2023/10/12 03:30:35;;;;;;;;;;;18.10;99.90;;;;;;6738887;88;20051;-82
2023/10/12 03:40:50;;;;;;;;;;;18.00;99.90;;;;;;6740101;88;20126;-82
2023/10/12 04:01:35;;;;;;;;;;;17.30;99.90;;;;;;6751529;88;20529;-83
2023/10/12 04:11:50;;;;;;;;;;;17.30;99.90;;;;;;6737656;88;20026;-82
2023/10/12 04:22:05;;;;;;;;;;;17.20;99.90;;;;;;6741320;88;20169;-82
2023/10/12 04:32:36;;;;;;;;;;;17.20;99.90;;;;;;6723382;88;20060;-83
2023/10/12 04:42:44;;;;;;;;;;;16.90;99.90;;;;;;6728203;88;20656;-82
2023/10/12 04:53:06;;;;;;;;;;;16.60;99.90;;;;;;6723922;88;20094;-82
2023/10/12 05:03:22;;;;;;;;;;;16.80;99.90;;;;;;6721677;88;20080;-82
2023/10/12 05:13:23;;;;;;;;;;;16.80;99.90;;;;;;6739714;88;21109;-82
2023/10/12 05:23:24;;;;;;;;;;;17.00;99.90;;;;;;6735113;88;20153;-83
2023/10/12 05:43:39;;;;;;;;;;;16.40;99.90;;;;;;6734961;88;20079;-82
2023/10/12 05:53:40;;;;;;;;;;;16.30;99.90;;;;;;6710304;88;20082;-81
2023/10/12 06:03:46;;;;;;;;;;;16.00;99.90;;;;;;6716425;88;20028;-83
2023/10/12 06:13:51;;;;;;;;;;;16.10;99.90;;;;;;6722236;88;20128;-83
2023/10/12 06:23:52;;;;;;;;;;;15.80;99.90;;;;;;6727104;88;20112;-81
2023/10/12 06:33:55;;;;;;;;;;;15.80;99.90;;;;;;6714191;88;20054;-81
2023/10/12 06:43:58;;;;;;;;;;;15.60;99.90;;;;;;6717086;88;20617;-82
2023/10/12 06:54:07;;;;;;;;;;;15.60;99.90;;;;;;6721100;88;20042;-82
2023/10/12 07:05:18;;;;;;;;;;;;;;;;;;;;;
2023/10/12 07:14:39;;;;;;;;;;;15.40;99.90;;;;;;6682441;89;20667;-80
2023/10/12 07:24:39;;;;;;;;;;;15.50;99.90;;;;;;6701158;88;20101;-81
2023/10/12 07:34:40;;;;;;;;;;;15.50;99.90;;;;;;6714007;88;20549;-81
2023/10/12 07:44:42;;;;;;;;;;;15.60;99.90;;;;;;6712890;88;20125;-80
2023/10/12 08:05:14;;;;;;;;;;;15.60;99.90;;;;;;6711516;88;20062;-82
2023/10/12 08:15:15;;;;;;;;;;;15.50;99.90;;;;;;6712884;88;20796;-81
2023/10/12 08:25:15;;;;;;;;;;;15.60;99.90;;;;;;6719036;88;20083;-80
2023/10/12 08:45:37;;;;;;;;;;;15.70;99.90;;;;;;6740343;88;20080;-81
2023/10/12 08:55:38;;;;;;;;;;;15.70;99.90;;;;;;6726412;88;20044;-81
2023/10/12 09:05:39;;;;;;;;;;;15.80;99.90;;;;;;6739542;88;20067;-81
2023/10/12 09:15:45;;;;;;;;;;;15.90;99.90;;;;;;6732563;88;20077;-81
2023/10/12 09:26:11;;;;;;;;;;;16.10;99.90;;;;;;6722052;88;20594;-81
2023/10/12 09:36:09;;;;;;;;;;;16.10;99.90;;;;;;6728006;88;20059;-81
2023/10/12 09:46:14;;;;;;;;;;;16.30;99.90;;;;;;6736122;77;20166;-79
2023/10/12 09:56:16;;;;;;;;;;;16.40;99.90;;;;;;6718113;88;20056;-79
2023/10/12 10:06:20;;;;;;;;;;;16.20;99.90;;;;;;6714804;88;20076;-78
2023/10/12 10:16:21;;;;;;;;;;;16.40;99.90;;;;;;6708660;88;20156;-79
2023/10/12 10:26:24;;;;;;;;;;;16.50;99.90;;;;;;6715365;88;20083;-79
2023/10/12 10:36:26;;;;;;;;;;;16.60;99.90;;;;;;6708768;88;20074;-78
2023/10/12 10:46:27;;;;;;;;;;;16.70;99.90;;;;;;6715458;88;20088;-79
2023/10/12 10:56:38;;;;;;;;;;;16.90;99.90;;;;;;6720105;88;20128;-79
2023/10/12 11:06:39;;;;;;;;;;;17.00;99.90;;;;;;6715002;88;20062;-79
2023/10/12 11:16:43;;;;;;;;;;;17.30;99.90;;;;;;6722624;88;20069;-78
2023/10/12 11:26:51;;;;;;;;;;;17.70;99.90;;;;;;6716267;88;20102;-78
2023/10/12 11:36:57;;;;;;;;;;;18.70;99.90;;;;;;6714247;88;20112;-79
2023/10/12 11:47:00;;;;;;;;;;;19.40;99.90;;;;;;6711187;88;20085;-78
2023/10/12 11:57:04;;;;;;;;;;;19.20;99.90;;;;;;6713175;88;20118;-79
2023/10/12 12:07:05;;;;;;;;;;;19.30;99.90;;;;;;6708228;88;20112;-80
2023/10/12 12:17:05;;;;;;;;;;;19.40;99.90;;;;;;6723704;88;20058;-78
2023/10/12 12:27:10;;;;;;;;;;;19.40;99.90;;;;;;6722047;88;20072;-79
2023/10/12 12:37:10;;;;;;;;;;;19.70;99.90;;;;;;6732592;88;20082;-80
2023/10/12 12:47:11;;;;;;;;;;;19.70;99.90;;;;;;6718384;88;20064;-81
2023/10/12 12:57:14;;;;;;;;;;;19.40;99.90;;;;;;6696505;88;20152;-80
2023/10/12 13:07:17;;;;;;;;;;;19.20;99.90;;;;;;6693351;89;20072;-81
2023/10/12 13:17:18;;;;;;;;;;;18.90;99.90;;;;;;6695595;88;20095;-81
2023/10/12 13:27:21;;;;;;;;;;;18.00;99.90;;;;;;6688295;88;20063;-79
2023/10/12 13:37:22;;;;;;;;;;;17.50;99.90;;;;;;6678980;88;20110;-80
2023/10/12 13:47:25;;;;;;;;;;;17.10;99.90;;;;;;6699275;88;20157;-79
2023/10/12 13:57:25;;;;;;;;;;;16.90;99.90;;;;;;6704802;88;20519;-79
2023/10/12 14:07:26;;;;;;;;;;;17.00;99.90;;;;;;6700199;88;20075;-79
2023/10/12 14:17:26;;;;;;;;;;;16.90;99.90;;;;;;6704854;88;20083;-79
2023/10/12 14:27:28;;;;;;;;;;;17.00;99.90;;;;;;6707918;88;20064;-80
2023/10/12 14:37:28;;;;;;;;;;;16.90;99.90;;;;;;6711279;88;20282;-80
2023/10/12 14:47:29;;;;;;;;;;;16.90;99.90;;;;;;6709466;88;20175;-81
2023/10/12 14:57:29;;;;;;;;;;;16.90;99.90;;;;;;6720963;88;20393;-81
2023/10/12 15:07:30;;;;;;;;;;;17.00;99.90;;;;;;6709157;88;20217;-80
2023/10/12 15:17:30;;;;;;;;;;;16.80;99.90;;;;;;6712948;88;20081;-79
2023/10/12 15:27:32;;;;;;;;;;;16.80;99.90;;;;;;6722253;88;20059;-79
2023/10/12 15:37:34;;;;;;;;;;;16.70;99.90;;;;;;6710350;88;20086;-79
2023/10/12 16:08:21;;;;;;;;;;;16.60;99.90;;;;;;6766645;88;20057;-83
2023/10/12 16:29:07;;;;;;;;;;;16.50;99.90;;;;;;6745756;88;20144;-81
2023/10/12 16:39:10;;;;;;;;;;;16.50;99.90;;;;;;6737299;88;20149;-81
2023/10/12 16:49:11;;;;;;;;;;;16.50;99.90;;;;;;6742223;88;20051;-83
2023/10/12 16:59:17;;;;;;;;;;;16.50;99.90;;;;;;6735917;88;20063;-81
2023/10/12 17:09:19;;;;;;;;;;;16.40;99.90;;;;;;6725137;88;20082;-81
2023/10/12 17:19:20;;;;;;;;;;;16.40;99.90;;;;;;6723310;88;20517;-79
2023/10/12 17:29:20;;;;;;;;;;;16.30;99.90;;;;;;6720801;88;20062;-79
2023/10/12 17:39:27;;;;;;;;;;;16.40;99.90;;;;;;6719965;88;20054;-79
2023/10/12 17:49:28;;;;;;;;;;;16.40;99.90;;;;;;6719852;88;20050;-79
2023/10/12 17:59:29;;;;;;;;;;;16.50;99.90;;;;;;6721312;88;20079;-79
2023/10/12 18:09:31;;;;;;;;;;;16.50;99.90;;;;;;6713980;88;20083;-79
2023/10/12 18:19:31;;;;;;;;;;;16.40;99.90;;;;;;6717124;88;20522;-79
2023/10/12 18:29:32;;;;;;;;;;;16.50;99.90;;;;;;6712512;88;20055;-79
2023/10/12 18:39:32;;;;;;;;;;;16.40;99.90;;;;;;6705902;88;20069;-79
2023/10/12 18:49:33;;;;;;;;;;;16.40;99.90;;;;;;6701031;88;20090;-78
2023/10/12 18:59:33;;;;;;;;;;;16.50;99.90;;;;;;6706944;88;20114;-78
2023/10/12 19:09:34;;;;;;;;;;;16.60;99.90;;;;;;6711817;88;20113;-78
2023/10/12 19:19:34;;;;;;;;;;;16.70;99.90;;;;;;6706397;88;20195;-78
2023/10/12 19:29:36;;;;;;;;;;;16.80;99.90;;;;;;6701207;88;20673;-81
2023/10/12 19:39:37;;;;;;;;;;;16.80;99.90;;;;;;6704530;88;20091;-83
2023/10/12 19:49:37;;;;;;;;;;;16.90;99.90;;;;;;6722472;88;20123;-80
2023/10/12 19:59:39;;;;;;;;;;;16.80;99.90;;;;;;6721618;88;20269;-80
2023/10/12 20:09:39;;;;;;;;;;;17.00;99.90;;;;;;6721893;88;20532;-80
2023/10/12 20:19:40;;;;;;;;;;;16.90;99.90;;;;;;6722693;88;20067;-80
2023/10/12 20:29:41;;;;;;;;;;;16.90;99.90;;;;;;6724053;88;20080;-80
2023/10/12 20:39:41;;;;;;;;;;;16.80;99.90;;;;;;6721410;88;20047;-79
2023/10/12 20:49:42;;;;;;;;;;;16.70;99.90;;;;;;6720889;88;20092;-79
2023/10/12 20:59:46;;;;;;;;;;;16.60;99.90;;;;;;6704770;88;20604;-79
2023/10/12 21:10:34;;;;;;;;;;;16.50;99.90;;;;;;6703599;88;20055;-79
2023/10/12 21:30:30;;;;;;;;;;;16.40;99.90;;;;;;6711826;88;20054;-79
2023/10/12 21:40:39;;;;;;;;;;;16.40;99.90;;;;;;6712436;88;20445;-79
2023/10/12 21:50:40;;;;;;;;;;;16.40;99.90;;;;;;6712889;78;20210;-77
2023/10/12 22:10:49;;;;;;;;;;;16.50;99.90;;;;;;6708590;88;20098;-76
2023/10/12 22:20:55;;;;;;;;;;;16.60;99.90;;;;;;6710896;88;20055;-76
2023/10/12 22:30:58;;;;;;;;;;;16.60;99.90;;;;;;6710720;88;20231;-77
2023/10/12 22:41:04;;;;;;;;;;;16.80;99.90;;;;;;6708762;88;20217;-78
2023/10/12 22:51:04;;;;;;;;;;;16.80;99.90;;;;;;6710715;88;20514;-78
2023/10/12 23:01:05;;;;;;;;;;;16.80;99.90;;;;;;6714913;88;20177;-78
2023/10/12 23:11:21;;;;;;;;;;;16.90;99.90;;;;;;6707412;88;20187;-77
2023/10/12 23:21:29;;;;;;;;;;;16.90;99.90;;;;;;6707673;88;20529;-76
2023/10/12 23:31:34;;;;;;;;;;;16.90;99.90;;;;;;6707657;88;20071;-77
2023/10/12 23:41:35;;;;;;;;;;;17.00;99.90;;;;;;6706966;88;20059;-77
2023/10/12 23:51:35;;;;;;;;;;;16.80;99.90;;;;;;6710936;88;20079;-77
